sensor_id;sensor_type;location;lat;lon;timestamp;P1;durP1;ratioP1;P2;durP2;ratioP2
77061;SDS011;65989;51.686;5.138;2022-12-10T15:43:41;78.70;;;22.98;;
77061;SDS011;65989;51.686;5.138;2022-12-10T15:45:59;71.78;;;22.48;;
77061;SDS011;65989;51.686;5.138;2022-12-10T15:48:30;68.77;;;21.63;;
77061;SDS011;65989;51.686;5.138;2022-12-10T15:50:55;70.03;;;22.60;;
77061;SDS011;65989;51.686;5.138;2022-12-10T15:53:25;64.30;;;20.20;;
77061;SDS011;65989;51.686;5.138;2022-12-10T15:55:53;69.22;;;21.65;;
77061;SDS011;65989;51.686;5.138;2022-12-10T15:58:19;75.30;;;22.93;;
77061;SDS011;65989;51.686;5.138;2022-12-10T16:00:44;69.03;;;20.73;;
77061;SDS011;65989;51.686;5.138;2022-12-10T16:03:12;66.43;;;21.10;;
77061;SDS011;65989;51.686;5.138;2022-12-10T16:05:43;70.07;;;23.15;;
77061;SDS011;65989;51.686;5.138;2022-12-10T16:08:24;73.68;;;20.15;;
77061;SDS011;65989;51.686;5.138;2022-12-10T16:10:55;70.70;;;21.38;;
77061;SDS011;65989;51.686;5.138;2022-12-10T16:13:24;60.22;;;19.02;;
77061;SDS011;65989;51.686;5.138;2022-12-10T16:15:57;64.20;;;18.63;;
77061;SDS011;65989;51.686;5.138;2022-12-10T16:18:26;64.30;;;20.33;;
77061;SDS011;65989;51.686;5.138;2022-12-10T16:20:52;64.47;;;19.65;;
77061;SDS011;65989;51.686;5.138;2022-12-10T16:23:17;74.63;;;22.03;;
77061;SDS011;65989;51.686;5.138;2022-12-10T16:25:43;64.32;;;20.42;;
77061;SDS011;65989;51.686;5.138;2022-12-10T16:28:11;61.63;;;19.85;;
77061;SDS011;65989;51.686;5.138;2022-12-10T16:30:44;70.17;;;20.70;;
77061;SDS011;65989;51.686;5.138;2022-12-10T16:33:17;77.70;;;23.35;;
77061;SDS011;65989;51.686;5.138;2022-12-10T16:35:44;81.47;;;22.05;;
77061;SDS011;65989;51.686;5.138;2022-12-10T16:38:11;68.70;;;20.48;;
77061;SDS011;65989;51.686;5.138;2022-12-10T16:40:37;64.97;;;21.08;;
77061;SDS011;65989;51.686;5.138;2022-12-10T16:43:04;67.13;;;20.73;;
77061;SDS011;65989;51.686;5.138;2022-12-10T16:45:37;73.70;;;21.25;;
77061;SDS011;65989;51.686;5.138;2022-12-10T16:48:04;66.38;;;21.45;;
77061;SDS011;65989;51.686;5.138;2022-12-10T16:50:30;70.32;;;19.60;;
77061;SDS011;65989;51.686;5.138;2022-12-10T16:52:57;65.80;;;19.65;;
77061;SDS011;65989;51.686;5.138;2022-12-10T16:55:24;59.80;;;18.73;;
77061;SDS011;65989;51.686;5.138;2022-12-10T16:57:51;64.88;;;21.65;;
77061;SDS011;65989;51.686;5.138;2022-12-10T17:00:25;64.63;;;19.08;;
77061;SDS011;65989;51.686;5.138;2022-12-10T17:02:51;63.47;;;21.15;;
77061;SDS011;65989;51.686;5.138;2022-12-10T17:05:20;63.30;;;21.40;;
77061;SDS011;65989;51.686;5.138;2022-12-10T17:07:52;56.53;;;19.05;;
77061;SDS011;65989;51.686;5.138;2022-12-10T17:10:20;61.67;;;19.63;;
77061;SDS011;65989;51.686;5.138;2022-12-10T17:13:07;56.28;;;18.63;;
77061;SDS011;65989;51.686;5.138;2022-12-10T17:15:35;92.43;;;24.93;;
77061;SDS011;65989;51.686;5.138;2022-12-10T17:18:01;80.13;;;22.73;;
77061;SDS011;65989;51.686;5.138;2022-12-10T17:20:27;83.68;;;25.38;;
77061;SDS011;65989;51.686;5.138;2022-12-10T17:22:54;78.47;;;23.00;;
77061;SDS011;65989;51.686;5.138;2022-12-10T17:25:19;83.13;;;24.73;;
77061;SDS011;65989;51.686;5.138;2022-12-10T17:27:45;80.27;;;23.33;;
77061;SDS011;65989;51.686;5.138;2022-12-10T17:30:13;69.70;;;22.05;;
77061;SDS011;65989;51.686;5.138;2022-12-10T17:32:40;83.00;;;24.70;;
77061;SDS011;65989;51.686;5.138;2022-12-10T17:35:06;78.55;;;23.67;;
77061;SDS011;65989;51.686;5.138;2022-12-10T17:37:35;77.93;;;23.27;;
77061;SDS011;65989;51.686;5.138;2022-12-10T17:40:02;75.15;;;23.83;;
77061;SDS011;65989;51.686;5.138;2022-12-10T17:42:38;75.07;;;22.33;;
77061;SDS011;65989;51.686;5.138;2022-12-10T17:45:04;74.47;;;22.30;;
77061;SDS011;65989;51.686;5.138;2022-12-10T17:47:30;95.60;;;22.90;;
77061;SDS011;65989;51.686;5.138;2022-12-10T17:49:57;79.70;;;23.55;;
77061;SDS011;65989;51.686;5.138;2022-12-10T17:52:23;84.32;;;22.85;;
77061;SDS011;65989;51.686;5.138;2022-12-10T17:54:48;80.97;;;21.27;;
77061;SDS011;65989;51.686;5.138;2022-12-10T17:57:15;85.60;;;23.57;;
77061;SDS011;65989;51.686;5.138;2022-12-10T17:59:44;95.10;;;23.58;;
77061;SDS011;65989;51.686;5.138;2022-12-10T18:02:09;80.00;;;22.23;;
77061;SDS011;65989;51.686;5.138;2022-12-10T18:04:35;78.60;;;23.38;;
77061;SDS011;65989;51.686;5.138;2022-12-10T18:07:01;87.45;;;25.33;;
77061;SDS011;65989;51.686;5.138;2022-12-10T18:09:27;91.00;;;24.53;;
77061;SDS011;65989;51.686;5.138;2022-12-10T18:11:52;90.93;;;25.80;;
77061;SDS011;65989;51.686;5.138;2022-12-10T18:14:18;86.38;;;25.40;;
77061;SDS011;65989;51.686;5.138;2022-12-10T18:16:44;93.78;;;24.92;;
77061;SDS011;65989;51.686;5.138;2022-12-10T18:19:12;87.00;;;25.67;;
77061;SDS011;65989;51.686;5.138;2022-12-10T18:21:40;83.10;;;24.60;;
77061;SDS011;65989;51.686;5.138;2022-12-10T18:24:05;99.57;;;26.05;;
77061;SDS011;65989;51.686;5.138;2022-12-10T18:26:31;103.82;;;28.10;;
77061;SDS011;65989;51.686;5.138;2022-12-10T18:28:59;86.47;;;25.57;;
77061;SDS011;65989;51.686;5.138;2022-12-10T18:31:29;97.80;;;27.25;;
77061;SDS011;65989;51.686;5.138;2022-12-10T18:33:57;97.47;;;26.58;;
77061;SDS011;65989;51.686;5.138;2022-12-10T18:36:34;94.53;;;26.15;;
77061;SDS011;65989;51.686;5.138;2022-12-10T18:39:03;94.47;;;26.45;;
77061;SDS011;65989;51.686;5.138;2022-12-10T18:41:31;104.83;;;26.17;;
77061;SDS011;65989;51.686;5.138;2022-12-10T18:43:59;89.95;;;26.80;;
77061;SDS011;65989;51.686;5.138;2022-12-10T18:46:25;100.73;;;26.73;;
77061;SDS011;65989;51.686;5.138;2022-12-10T18:48:52;93.03;;;25.93;;
77061;SDS011;65989;51.686;5.138;2022-12-10T18:51:21;93.22;;;25.58;;
77061;SDS011;65989;51.686;5.138;2022-12-10T18:53:47;96.88;;;27.10;;
77061;SDS011;65989;51.686;5.138;2022-12-10T18:56:14;102.85;;;25.77;;
77061;SDS011;65989;51.686;5.138;2022-12-10T18:58:45;105.03;;;28.25;;
77061;SDS011;65989;51.686;5.138;2022-12-10T19:01:14;96.97;;;26.43;;
77061;SDS011;65989;51.686;5.138;2022-12-10T19:03:42;92.97;;;25.60;;
77061;SDS011;65989;51.686;5.138;2022-12-10T19:06:14;97.95;;;27.27;;
77061;SDS011;65989;51.686;5.138;2022-12-10T19:08:46;94.07;;;26.97;;
77061;SDS011;65989;51.686;5.138;2022-12-10T19:11:14;99.93;;;27.83;;
77061;SDS011;65989;51.686;5.138;2022-12-10T19:13:41;91.10;;;26.65;;
77061;SDS011;65989;51.686;5.138;2022-12-10T19:16:15;98.47;;;26.77;;
77061;SDS011;65989;51.686;5.138;2022-12-10T19:18:43;94.30;;;27.05;;
77061;SDS011;65989;51.686;5.138;2022-12-10T19:21:14;89.23;;;26.37;;
77061;SDS011;65989;51.686;5.138;2022-12-10T19:23:40;95.38;;;25.48;;
77061;SDS011;65989;51.686;5.138;2022-12-10T19:28:37;93.18;;;25.67;;
77061;SDS011;65989;51.686;5.138;2022-12-10T19:31:06;96.87;;;27.83;;
77061;SDS011;65989;51.686;5.138;2022-12-10T19:33:34;108.82;;;28.13;;
77061;SDS011;65989;51.686;5.138;2022-12-10T19:36:00;99.63;;;26.90;;
77061;SDS011;65989;51.686;5.138;2022-12-10T19:38:25;104.70;;;28.20;;
77061;SDS011;65989;51.686;5.138;2022-12-10T19:40:50;104.88;;;27.73;;
77061;SDS011;65989;51.686;5.138;2022-12-10T19:43:16;102.03;;;26.90;;
77061;SDS011;65989;51.686;5.138;2022-12-10T19:45:42;94.80;;;27.98;;
77061;SDS011;65989;51.686;5.138;2022-12-10T19:48:08;99.37;;;26.00;;
77061;SDS011;65989;51.686;5.138;2022-12-10T19:50:33;96.25;;;26.92;;
77061;SDS011;65989;51.686;5.138;2022-12-10T19:53:00;93.30;;;25.93;;
77061;SDS011;65989;51.686;5.138;2022-12-10T19:55:26;83.68;;;24.23;;
77061;SDS011;65989;51.686;5.138;2022-12-10T19:57:52;95.15;;;27.60;;
77061;SDS011;65989;51.686;5.138;2022-12-10T20:02:46;95.50;;;26.60;;
77061;SDS011;65989;51.686;5.138;2022-12-10T20:05:12;107.82;;;26.27;;
77061;SDS011;65989;51.686;5.138;2022-12-10T20:07:38;97.28;;;25.67;;
77061;SDS011;65989;51.686;5.138;2022-12-10T20:10:04;93.03;;;26.73;;
77061;SDS011;65989;51.686;5.138;2022-12-10T20:12:30;88.05;;;25.40;;
77061;SDS011;65989;51.686;5.138;2022-12-10T20:14:56;94.85;;;24.88;;
77061;SDS011;65989;51.686;5.138;2022-12-10T20:17:21;98.20;;;25.70;;
77061;SDS011;65989;51.686;5.138;2022-12-10T20:19:52;92.80;;;26.13;;
77061;SDS011;65989;51.686;5.138;2022-12-10T20:22:18;98.30;;;26.27;;
77061;SDS011;65989;51.686;5.138;2022-12-10T20:24:44;92.68;;;25.15;;
77061;SDS011;65989;51.686;5.138;2022-12-10T20:27:10;99.45;;;27.77;;
77061;SDS011;65989;51.686;5.138;2022-12-10T20:29:41;97.90;;;25.97;;
77061;SDS011;65989;51.686;5.138;2022-12-10T20:32:06;103.40;;;26.52;;
77061;SDS011;65989;51.686;5.138;2022-12-10T20:34:32;98.72;;;26.38;;
77061;SDS011;65989;51.686;5.138;2022-12-10T20:36:58;88.23;;;24.50;;
77061;SDS011;65989;51.686;5.138;2022-12-10T20:39:29;101.05;;;25.80;;
77061;SDS011;65989;51.686;5.138;2022-12-10T20:41:57;96.68;;;26.45;;
77061;SDS011;65989;51.686;5.138;2022-12-10T20:44:23;99.28;;;25.55;;
77061;SDS011;65989;51.686;5.138;2022-12-10T20:46:50;94.30;;;24.70;;
77061;SDS011;65989;51.686;5.138;2022-12-10T20:49:17;89.73;;;24.40;;
77061;SDS011;65989;51.686;5.138;2022-12-10T20:51:44;87.97;;;26.10;;
77061;SDS011;65989;51.686;5.138;2022-12-10T20:54:10;88.38;;;24.90;;
77061;SDS011;65989;51.686;5.138;2022-12-10T20:56:36;93.93;;;25.50;;
77061;SDS011;65989;51.686;5.138;2022-12-10T20:59:02;81.43;;;24.57;;
77061;SDS011;65989;51.686;5.138;2022-12-10T21:01:32;91.82;;;25.10;;
77061;SDS011;65989;51.686;5.138;2022-12-10T21:03:59;98.82;;;26.35;;
77061;SDS011;65989;51.686;5.138;2022-12-10T21:06:26;100.73;;;25.10;;
77061;SDS011;65989;51.686;5.138;2022-12-10T21:08:53;92.57;;;25.08;;
77061;SDS011;65989;51.686;5.138;2022-12-10T21:11:20;92.32;;;25.42;;
77061;SDS011;65989;51.686;5.138;2022-12-10T21:13:45;88.10;;;24.80;;
77061;SDS011;65989;51.686;5.138;2022-12-10T21:16:20;89.55;;;23.75;;
77061;SDS011;65989;51.686;5.138;2022-12-10T21:18:49;104.45;;;25.88;;
77061;SDS011;65989;51.686;5.138;2022-12-10T21:21:18;92.32;;;26.83;;
77061;SDS011;65989;51.686;5.138;2022-12-10T21:23:54;107.07;;;26.55;;
77061;SDS011;65989;51.686;5.138;2022-12-10T21:26:20;92.17;;;26.03;;
77061;SDS011;65989;51.686;5.138;2022-12-10T21:28:51;94.80;;;25.38;;
77061;SDS011;65989;51.686;5.138;2022-12-10T21:31:21;95.07;;;26.40;;
77061;SDS011;65989;51.686;5.138;2022-12-10T21:33:51;85.67;;;26.33;;
77061;SDS011;65989;51.686;5.138;2022-12-10T21:36:20;106.47;;;28.17;;
77061;SDS011;65989;51.686;5.138;2022-12-10T21:38:46;90.10;;;27.13;;
77061;SDS011;65989;51.686;5.138;2022-12-10T21:41:15;102.00;;;27.98;;
77061;SDS011;65989;51.686;5.138;2022-12-10T21:44:13;93.95;;;27.27;;
77061;SDS011;65989;51.686;5.138;2022-12-10T21:46:39;92.30;;;27.13;;
77061;SDS011;65989;51.686;5.138;2022-12-10T21:49:09;91.55;;;26.88;;
77061;SDS011;65989;51.686;5.138;2022-12-10T21:51:35;89.00;;;26.40;;
77061;SDS011;65989;51.686;5.138;2022-12-10T21:54:01;101.70;;;26.48;;
77061;SDS011;65989;51.686;5.138;2022-12-10T21:56:27;95.00;;;25.95;;
77061;SDS011;65989;51.686;5.138;2022-12-10T21:58:56;95.13;;;26.60;;
77061;SDS011;65989;51.686;5.138;2022-12-10T22:01:21;97.22;;;26.27;;
77061;SDS011;65989;51.686;5.138;2022-12-10T22:03:47;91.53;;;26.63;;
77061;SDS011;65989;51.686;5.138;2022-12-10T22:06:16;95.07;;;27.88;;
77061;SDS011;65989;51.686;5.138;2022-12-10T22:08:50;88.43;;;24.53;;
77061;SDS011;65989;51.686;5.138;2022-12-10T22:11:16;98.63;;;29.10;;
77061;SDS011;65989;51.686;5.138;2022-12-10T22:13:50;84.50;;;26.92;;
77061;SDS011;65989;51.686;5.138;2022-12-10T22:16:19;87.03;;;27.92;;
77061;SDS011;65989;51.686;5.138;2022-12-10T22:18:45;90.80;;;26.47;;
77061;SDS011;65989;51.686;5.138;2022-12-10T22:21:10;99.90;;;27.73;;
77061;SDS011;65989;51.686;5.138;2022-12-10T22:23:36;97.47;;;26.83;;
77061;SDS011;65989;51.686;5.138;2022-12-10T22:26:05;84.83;;;26.23;;
77061;SDS011;65989;51.686;5.138;2022-12-10T22:28:32;86.80;;;25.33;;
77061;SDS011;65989;51.686;5.138;2022-12-10T22:30:58;87.80;;;26.33;;
77061;SDS011;65989;51.686;5.138;2022-12-10T22:33:23;93.60;;;27.42;;
77061;SDS011;65989;51.686;5.138;2022-12-10T22:35:48;88.63;;;26.40;;
77061;SDS011;65989;51.686;5.138;2022-12-10T22:38:14;88.63;;;27.93;;
77061;SDS011;65989;51.686;5.138;2022-12-10T22:40:41;100.10;;;29.05;;
77061;SDS011;65989;51.686;5.138;2022-12-10T22:43:07;99.50;;;29.17;;
77061;SDS011;65989;51.686;5.138;2022-12-10T22:45:32;91.53;;;28.27;;
77061;SDS011;65989;51.686;5.138;2022-12-10T22:47:59;87.43;;;27.15;;
77061;SDS011;65989;51.686;5.138;2022-12-10T22:50:24;86.27;;;27.47;;
77061;SDS011;65989;51.686;5.138;2022-12-10T22:52:50;98.80;;;28.00;;
77061;SDS011;65989;51.686;5.138;2022-12-10T22:55:15;100.60;;;27.87;;
77061;SDS011;65989;51.686;5.138;2022-12-10T22:57:41;102.03;;;28.80;;
77061;SDS011;65989;51.686;5.138;2022-12-10T23:00:07;93.17;;;27.07;;
77061;SDS011;65989;51.686;5.138;2022-12-10T23:02:40;93.55;;;29.40;;
77061;SDS011;65989;51.686;5.138;2022-12-10T23:05:05;104.33;;;30.10;;
77061;SDS011;65989;51.686;5.138;2022-12-10T23:07:33;91.10;;;29.35;;
77061;SDS011;65989;51.686;5.138;2022-12-10T23:09:59;90.07;;;27.97;;
77061;SDS011;65989;51.686;5.138;2022-12-10T23:12:24;99.72;;;29.77;;
77061;SDS011;65989;51.686;5.138;2022-12-10T23:15:08;96.03;;;28.37;;
77061;SDS011;65989;51.686;5.138;2022-12-10T23:17:34;102.18;;;29.42;;
77061;SDS011;65989;51.686;5.138;2022-12-10T23:19:59;101.00;;;30.23;;
77061;SDS011;65989;51.686;5.138;2022-12-10T23:22:25;99.97;;;29.13;;
77061;SDS011;65989;51.686;5.138;2022-12-10T23:24:53;94.85;;;28.85;;
77061;SDS011;65989;51.686;5.138;2022-12-10T23:27:19;101.93;;;29.63;;
77061;SDS011;65989;51.686;5.138;2022-12-10T23:29:44;92.87;;;27.10;;
77061;SDS011;65989;51.686;5.138;2022-12-10T23:32:10;108.55;;;30.02;;
77061;SDS011;65989;51.686;5.138;2022-12-10T23:34:35;84.37;;;27.43;;
77061;SDS011;65989;51.686;5.138;2022-12-10T23:37:01;95.70;;;29.23;;
77061;SDS011;65989;51.686;5.138;2022-12-10T23:39:26;103.32;;;29.50;;
77061;SDS011;65989;51.686;5.138;2022-12-10T23:41:52;103.23;;;30.00;;
77061;SDS011;65989;51.686;5.138;2022-12-10T23:44:17;102.03;;;28.30;;
77061;SDS011;65989;51.686;5.138;2022-12-10T23:46:43;108.90;;;31.13;;
77061;SDS011;65989;51.686;5.138;2022-12-10T23:49:08;103.95;;;30.38;;
77061;SDS011;65989;51.686;5.138;2022-12-10T23:51:33;97.67;;;27.90;;
77061;SDS011;65989;51.686;5.138;2022-12-10T23:53:59;94.47;;;28.07;;
77061;SDS011;65989;51.686;5.138;2022-12-10T23:56:25;94.70;;;28.10;;
77061;SDS011;65989;51.686;5.138;2022-12-10T23:58:50;102.55;;;27.85;;
